createdAt,value
2023-03-16T00:00:27.356Z,66.5
2023-03-16T00:05:27.171Z,66.5
2023-03-16T00:10:27.588Z,66.5
2023-03-16T00:15:27.165Z,66.5
2023-03-16T00:20:27.315Z,67.0
2023-03-16T00:25:27.172Z,66.5
2023-03-16T00:30:27.417Z,66.5
2023-03-16T00:35:27.214Z,66.5
2023-03-16T00:40:27.351Z,67.0
2023-03-16T00:45:27.173Z,67.0
2023-03-16T00:50:27.438Z,67.0
2023-03-16T00:55:27.198Z,67.0
2023-03-16T01:00:27.353Z,67.5
2023-03-16T01:05:27.174Z,67.5
2023-03-16T01:10:27.523Z,67.5
2023-03-16T01:15:27.182Z,67.5
2023-03-16T01:20:27.479Z,68.0
2023-03-16T01:25:27.182Z,68.0
2023-03-16T01:30:27.457Z,68.0
2023-03-16T01:35:27.205Z,68.5
2023-03-16T01:40:27.437Z,68.5
2023-03-16T01:45:27.198Z,68.5
2023-03-16T01:50:27.350Z,68.5
2023-03-16T01:55:27.197Z,69.0
2023-03-16T02:00:27.420Z,69.0
2023-03-16T02:05:27.207Z,69.0
2023-03-16T02:10:27.446Z,69.0
2023-03-16T02:15:27.290Z,69.0
2023-03-16T02:20:27.565Z,69.0
2023-03-16T02:25:27.206Z,69.0
2023-03-16T02:30:27.468Z,69.0
2023-03-16T02:35:27.227Z,69.0
2023-03-16T02:40:27.490Z,69.0
2023-03-16T02:45:27.204Z,69.0
2023-03-16T02:50:27.516Z,69.0
2023-03-16T02:55:27.214Z,69.0
2023-03-16T03:00:27.510Z,69.5
2023-03-16T03:05:27.238Z,69.5
2023-03-16T03:10:27.419Z,69.5
2023-03-16T03:15:27.250Z,69.5
2023-03-16T03:20:27.508Z,69.5
2023-03-16T03:25:27.223Z,69.5
2023-03-16T03:30:27.454Z,70.0
2023-03-16T03:35:27.278Z,70.5
2023-03-16T03:40:27.628Z,71.0
2023-03-16T03:45:27.249Z,71.0
2023-03-16T03:50:27.484Z,71.0
2023-03-16T03:55:27.229Z,71.5
2023-03-16T04:00:27.463Z,71.5
2023-03-16T04:05:27.231Z,72.0
2023-03-16T04:10:27.495Z,72.0
2023-03-16T04:15:27.239Z,72.0
2023-03-16T04:20:27.475Z,72.0
2023-03-16T04:25:27.257Z,72.0
2023-03-16T04:30:27.517Z,72.0
2023-03-16T04:35:27.250Z,72.0
2023-03-16T04:40:27.559Z,72.0
2023-03-16T04:45:27.250Z,72.0
2023-03-16T04:50:27.533Z,72.5
2023-03-16T04:55:27.492Z,72.0
2023-03-16T05:00:27.535Z,72.0
2023-03-16T05:05:27.288Z,72.0
2023-03-16T05:10:27.570Z,72.5
2023-03-16T05:15:27.260Z,72.5
2023-03-16T05:20:27.456Z,72.5
2023-03-16T05:25:27.255Z,72.0
2023-03-16T05:30:27.615Z,72.5
2023-03-16T05:35:27.398Z,72.5
2023-03-16T05:40:27.503Z,72.5
2023-03-16T05:45:27.266Z,72.5
2023-03-16T05:50:27.753Z,72.5
2023-03-16T05:55:27.277Z,72.5
2023-03-16T06:00:27.565Z,72.5
2023-03-16T06:05:27.269Z,72.5
2023-03-16T06:10:27.605Z,73.0
2023-03-16T06:15:27.295Z,72.5
2023-03-16T06:20:27.630Z,73.0
2023-03-16T06:25:27.279Z,73.0
2023-03-16T06:30:27.583Z,73.0
2023-03-16T06:35:27.318Z,73.0
2023-03-16T06:40:27.628Z,73.0
2023-03-16T06:45:27.292Z,73.5
2023-03-16T06:50:27.615Z,73.5
2023-03-16T06:55:27.294Z,73.5
2023-03-16T07:00:27.613Z,74.0
2023-03-16T07:05:27.294Z,74.0
2023-03-16T07:10:27.730Z,74.5
2023-03-16T07:15:27.306Z,75.0
2023-03-16T07:20:27.588Z,75.5
2023-03-16T07:25:27.297Z,76.0
2023-03-16T07:30:27.580Z,76.0
2023-03-16T07:35:27.321Z,76.0
2023-03-16T07:40:27.599Z,76.0
2023-03-16T07:45:27.606Z,76.5
2023-03-16T07:50:27.626Z,76.5
2023-03-16T07:55:27.301Z,76.5
2023-03-16T08:00:27.665Z,77.0
2023-03-16T08:05:27.970Z,77.0
2023-03-16T08:10:27.502Z,77.0
2023-03-16T08:15:27.312Z,77.5
2023-03-16T08:20:27.720Z,77.5
2023-03-16T08:25:27.314Z,77.5
2023-03-16T08:30:27.625Z,77.5
2023-03-16T08:35:27.325Z,77.5
2023-03-16T08:40:27.854Z,77.5
2023-03-16T08:45:27.346Z,77.0
2023-03-16T08:50:27.760Z,76.5
2023-03-16T08:55:27.321Z,76.0
2023-03-16T09:00:27.727Z,75.5
2023-03-16T09:05:27.339Z,75.5
2023-03-16T09:10:27.931Z,75.0
2023-03-16T09:15:27.328Z,74.5
2023-03-16T09:20:30.012Z,74.0
2023-03-16T09:25:28.002Z,73.5
2023-03-16T09:30:27.750Z,73.5
2023-03-16T09:35:27.642Z,73.0
2023-03-16T09:40:27.349Z,73.0
2023-03-16T09:45:27.840Z,73.0
2023-03-16T09:50:32.401Z,72.5
2023-03-16T09:55:27.668Z,72.5
2023-03-16T10:00:27.877Z,72.0
2023-03-16T10:05:27.382Z,71.5
2023-03-16T10:10:27.625Z,71.0
2023-03-16T10:15:27.387Z,70.0
2023-03-16T10:20:27.661Z,69.5
2023-03-16T10:25:27.380Z,69.0
2023-03-16T10:30:27.595Z,69.5
2023-03-16T10:35:27.655Z,68.5
2023-03-16T10:40:27.650Z,68.0
2023-03-16T10:45:27.788Z,66.0
2023-03-16T10:50:27.761Z,66.0
2023-03-16T10:55:27.430Z,65.0
2023-03-16T11:00:27.331Z,64.0
2023-03-16T11:05:27.667Z,65.0
2023-03-16T11:10:27.302Z,63.5
2023-03-16T11:15:27.304Z,61.0
2023-03-16T11:20:27.305Z,61.0
2023-03-16T11:25:27.566Z,61.0
2023-03-16T11:30:27.311Z,61.0
2023-03-16T11:35:27.704Z,61.0
2023-03-16T11:40:27.314Z,59.5
2023-03-16T11:45:27.717Z,60.0
2023-03-16T11:50:27.318Z,59.5
2023-03-16T11:55:27.560Z,58.0
2023-03-16T12:00:27.317Z,58.5
2023-03-16T12:05:27.751Z,58.0
2023-03-16T12:10:27.308Z,58.5
2023-03-16T12:15:27.746Z,58.5
2023-03-16T12:20:27.320Z,58.0
2023-03-16T12:25:27.784Z,57.5
2023-03-16T12:30:27.319Z,57.5
2023-03-16T12:35:27.806Z,57.0
2023-03-16T12:40:27.334Z,57.0
2023-03-16T12:45:27.728Z,56.0
2023-03-16T12:50:27.365Z,56.0
2023-03-16T12:55:27.649Z,55.0
2023-03-16T13:00:27.588Z,55.0
2023-03-16T13:05:27.587Z,53.5
2023-03-16T13:10:27.641Z,52.5
2023-03-16T13:15:27.355Z,51.5
2023-03-16T13:20:31.221Z,52.0
2023-03-16T13:25:27.359Z,52.5
2023-03-16T13:30:27.585Z,51.5
2023-03-16T13:35:27.372Z,51.0
2023-03-16T13:40:27.926Z,50.0
2023-03-16T13:45:27.358Z,48.0
2023-03-16T13:50:27.777Z,48.5
2023-03-16T13:55:27.368Z,47.5
2023-03-16T14:00:27.837Z,47.5
2023-03-16T14:05:27.734Z,45.5
2023-03-16T14:10:27.481Z,46.5
2023-03-16T14:15:27.947Z,46.0
2023-03-16T14:20:27.384Z,46.5
2023-03-16T14:25:27.920Z,46.5
2023-03-16T14:30:27.382Z,46.5
2023-03-16T14:35:27.908Z,46.0
2023-03-16T14:40:27.513Z,46.5
2023-03-16T14:45:27.708Z,47.0
2023-03-16T14:50:27.393Z,45.0
2023-03-16T14:55:27.740Z,45.0
2023-03-16T15:00:27.404Z,45.0
2023-03-16T15:05:28.009Z,45.0
2023-03-16T15:15:27.470Z,44.5
2023-03-16T15:20:27.635Z,45.5
2023-03-16T15:25:27.424Z,46.0
2023-03-16T15:30:27.742Z,46.0
2023-03-16T15:35:27.422Z,45.0
2023-03-16T15:40:27.669Z,45.5
2023-03-16T15:45:27.425Z,46.0
2023-03-16T15:50:27.841Z,45.5
2023-03-16T15:55:27.425Z,45.5
2023-03-16T16:00:27.823Z,46.0
2023-03-16T16:05:27.439Z,46.5
2023-03-16T16:10:27.812Z,47.0
2023-03-16T16:15:27.683Z,47.5
2023-03-16T16:20:27.528Z,48.0
2023-03-16T16:25:27.882Z,48.5
2023-03-16T16:30:27.424Z,48.5
2023-03-16T16:35:27.877Z,49.0
2023-03-16T16:40:27.426Z,49.5
2023-03-16T16:45:27.817Z,50.5
2023-03-16T16:50:27.446Z,50.5
2023-03-16T16:55:27.853Z,51.0
2023-03-16T17:00:27.760Z,51.0
2023-03-16T17:05:27.827Z,51.5
2023-03-16T17:10:27.439Z,51.5
2023-03-16T17:15:28.014Z,52.5
2023-03-16T17:20:27.479Z,52.5
2023-03-16T17:25:27.921Z,53.5
2023-03-16T17:30:27.444Z,54.0
2023-03-16T17:35:27.872Z,54.0
2023-03-16T17:40:27.450Z,54.5
2023-03-16T17:45:27.769Z,55.0
2023-03-16T17:50:27.765Z,55.5
2023-03-16T17:55:27.453Z,55.5
2023-03-16T18:00:27.905Z,56.0
2023-03-16T18:05:27.458Z,56.5
2023-03-16T18:10:27.805Z,57.0
2023-03-16T18:15:27.461Z,57.0
2023-03-16T18:20:27.677Z,57.5
2023-03-16T18:25:27.460Z,58.0
2023-03-16T18:30:27.703Z,58.0
2023-03-16T18:35:27.738Z,58.5
2023-03-16T18:40:27.660Z,59.0
2023-03-16T18:45:27.723Z,59.0
2023-03-16T18:50:27.477Z,59.5
2023-03-16T18:55:27.901Z,60.0
2023-03-16T19:00:27.549Z,60.0
2023-03-16T19:05:27.793Z,60.0
2023-03-16T19:10:27.492Z,60.5
2023-03-16T19:15:27.972Z,61.0
2023-03-16T19:20:27.489Z,61.5
2023-03-16T19:25:28.013Z,61.5
2023-03-16T19:30:27.471Z,61.5
2023-03-16T19:35:44.329Z,62.0
2023-03-16T19:40:27.477Z,62.0
2023-03-16T19:45:27.707Z,62.0
2023-03-16T19:50:27.506Z,62.0
2023-03-16T19:55:27.862Z,61.5
2023-03-16T20:00:27.817Z,61.5
2023-03-16T20:05:28.108Z,61.5
2023-03-16T20:10:27.578Z,61.0
2023-03-16T20:15:27.717Z,61.0
2023-03-16T20:20:27.484Z,61.0
2023-03-16T20:25:27.968Z,61.0
2023-03-16T20:30:27.521Z,61.0
2023-03-16T20:35:28.037Z,61.0
2023-03-16T20:40:27.492Z,61.0
2023-03-16T20:45:27.493Z,61.0
2023-03-16T20:50:27.537Z,61.5
2023-03-16T20:55:27.713Z,61.5
2023-03-16T21:00:27.506Z,61.5
2023-03-16T21:05:28.107Z,62.0
2023-03-16T21:10:27.969Z,62.0
2023-03-16T21:15:27.928Z,62.5
2023-03-16T21:20:27.523Z,62.5
2023-03-16T21:25:28.025Z,62.5
2023-03-16T21:30:27.608Z,63.0
2023-03-16T21:35:27.662Z,63.5
2023-03-16T21:40:27.728Z,63.5
2023-03-16T21:45:27.866Z,64.0
2023-03-16T21:50:28.021Z,64.0
2023-03-16T21:55:27.615Z,64.5
2023-03-16T22:00:27.653Z,64.5
2023-03-16T22:05:27.846Z,64.5
2023-03-16T22:10:27.625Z,64.5
2023-03-16T22:15:28.122Z,65.0
2023-03-16T22:20:27.627Z,65.0
2023-03-16T22:25:27.872Z,65.5
2023-03-16T22:30:27.642Z,65.5
2023-03-16T22:35:27.822Z,65.5
2023-03-16T22:40:27.628Z,65.5
2023-03-16T22:45:27.946Z,65.5
2023-03-16T22:50:27.687Z,65.5
2023-03-16T22:55:28.044Z,65.5
2023-03-16T23:00:27.738Z,65.5
2023-03-16T23:05:27.998Z,65.5
2023-03-16T23:10:27.544Z,65.5
2023-03-16T23:15:28.005Z,65.0
2023-03-16T23:20:27.908Z,65.0
2023-03-16T23:25:27.653Z,65.0
2023-03-16T23:30:27.720Z,65.0
2023-03-16T23:35:27.656Z,65.0
2023-03-16T23:40:27.914Z,65.0
2023-03-16T23:45:27.661Z,65.0
2023-03-16T23:50:27.965Z,64.5
2023-03-16T23:55:27.658Z,64.5
